Nearby METAR Reports

 

KHOB - Hobbs, New Mexico, USA
Distance from station: S 40mi, 65km
Updated: Tue, 22-Sep-2020 9:35pm MDT
Clear
Clear
 Wind from ESE
Wind: ESE 6 mph , 9 km/h
Temperature: 66°F , 19°C
Dew Point: 37°F , 3°C
Humidity: 35%
Barometer: 30.09 inHg , 1019 hPa
Clouds: Clear
Visibility: 10 miles , 16 km
2020/09/23 03:35 KHOB 230335Z AUTO 12005KT 10SM CLR 19/03 A3009 RMK AO2
KGNC - Seminole, Texas, USA
Distance from station: SE 55mi, 89km
Updated: Tue, 22-Sep-2020 9:35pm MDT
Clear
Clear
 Wind from SE
Wind: SE 6 mph , 9 km/h
Temperature: 70°F , 21°C
Dew Point: 43°F , 6°C
Humidity: 38%
Barometer: 30.12 inHg , 1020 hPa
Clouds: Clear
Visibility: 10 miles , 16 km
2020/09/23 03:35 KGNC 230335Z AUTO 13005KT 10SM CLR 21/06 A3012 RMK AO2 T02050057
 
KROW - Roswell, New Mexico, USA
Distance from station: W 67mi, 108km
Updated: Tue, 22-Sep-2020 8:51pm MDT
Clear
Clear
 Wind from S
Wind: S 7 mph , 11 km/h
Temperature: 73°F , 23°C
Dew Point: 37°F , 3°C
Humidity: 27%
Barometer: 30.04 inHg , 1017.3 hPa
Clouds: Clear
Visibility: 10 miles , 16 km
2020/09/23 02:51 KROW 230251Z 18006KT 10SM CLR 23/03 A3004 RMK AO2 SLP118 T02330028 53010
KATS - Artesia, New Mexico, USA
Distance from station: WSW 71mi, 114km
Updated: Tue, 22-Sep-2020 9:35pm MDT
Clear
Clear
 Wind from SSE
Wind: SSE 10 mph , 17 km/h
Temperature: 70°F , 21°C
Dew Point: 36°F , 2°C
Humidity: 29%
Barometer: 30.06 inHg , 1017.9 hPa
Clouds: Clear
Visibility: 10 miles , 16 km
2020/09/23 03:35 KATS 230335Z AUTO 16009KT 10SM CLR 21/02 A3006 RMK AO2
 
KCVS - Cannon AFB,Clovis, New Mexico, USA
Distance from station: 0 78mi, 125km
Updated: Tue, 22-Sep-2020 8:58pm MDT
Clear
Clear
 Wind from SE
Wind: SE 9 mph , 15 km/h
Temperature: 68°F , 20°C
Dew Point: 41°F , 5°C
Humidity: 38%
Barometer: 30.12 inHg , 1020 hPa
Clouds: Clear
Visibility: 10 miles , 16 km
2020/09/23 02:58 KCVS 230258Z AUTO 14008KT 10SM CLR 20/05 A3012 RMK AO2 SLP152 T02010049 52016 $
KE11 - Andrews, Texas, USA
Distance from station: SE 78mi, 126km
Updated: Tue, 22-Sep-2020 9:35pm MDT
Clear
Clear
 Wind from SE
Wind: SE 7 mph , 11 km/h
Temperature: 68°F , 20°C
Dew Point: 43°F , 6°C
Humidity: 40%
Barometer: 30.08 inHg , 1018.6 hPa
Clouds: Clear
Visibility: 10 miles , 16 km
2020/09/23 03:35 KE11 230335Z AUTO 14006KT 10SM CLR 20/06 A3008 RMK AO2 T02000055
 
KCNM - Carlsbad, New Mexico, USA
Distance from station: SW 82mi, 132km
Updated: Tue, 22-Sep-2020 8:53pm MDT
Clear
Clear
 Wind from S
Wind: S 9 mph , 15 km/h
Temperature: 70°F , 21°C
Dew Point: 36°F , 2°C
Humidity: 29%
Barometer: 30.03 inHg , 1016.9 hPa
Clouds: Clear
Visibility: 10 miles , 16 km
2020/09/23 02:53 KCNM 230253Z AUTO 19008KT 10SM CLR 21/02 A3003 RMK AO2 SLP126 T02110017 53011
KCVN - Clovis Muni, New Mexico, USA
Distance from station: N 83mi, 133km
Updated: Tue, 22-Sep-2020 8:56pm MDT
Clear
Clear
 Wind from SSE
Wind: SSE 9 mph , 15 km/h
Temperature: 68°F , 20°C
Dew Point: 39°F , 4°C
Humidity: 35%
Barometer: 30.12 inHg , 1020 hPa
Clouds: Clear
Visibility: 10 miles , 16 km
2020/09/23 02:56 KCVN 230256Z AUTO 15008KT 10SM CLR 20/04 A3012 RMK AO2 SLP168 T02000044 53014
 
KLBB - Lubbock, Texas, USA
Distance from station: ENE 92mi, 149km
Updated: Tue, 22-Sep-2020 8:53pm MDT
Clear
Clear
 Wind from ESE
Wind: ESE 10 mph , 17 km/h
Temperature: 70°F , 21°C
Dew Point: 50°F , 10°C
Humidity: 50%
Barometer: 30.07 inHg , 1018.3 hPa
Clouds: Clear
Visibility: 10 miles , 16 km
2020/09/23 02:53 KLBB 230253Z 12009KT 10SM CLR 21/10 A3007 RMK AO2 SLP147 T02060100 53008
KINK - Wink, Texas, USA
Distance from station: S 101mi, 163km
Updated: Tue, 22-Sep-2020 8:53pm MDT
Clear
Clear
 Wind from SE
Wind: SE 8 mph , 13 km/h
Temperature: 73°F , 23°C
Dew Point: 46°F , 8°C
Humidity: 38%
Barometer: 30.02 inHg , 1016.6 hPa
Clouds: Clear
Visibility: 10 miles , 16 km
2020/09/23 02:53 KINK 230253Z AUTO 14007KT 10SM CLR 23/08 A3002 RMK AO2 SLP129 T02280078 53009
 
KMAF - Midland, Texas, USA
Distance from station: SE 111mi, 179km
Updated: Tue, 22-Sep-2020 8:53pm MDT
Clear
Clear
 Wind from ESE
Wind: ESE 8 mph , 13 km/h
Temperature: 72°F , 22°C
Dew Point: 46°F , 8°C
Humidity: 41%
Barometer: 30.06 inHg , 1017.9 hPa
Clouds: Clear
Visibility: 9 miles , 14 km
2020/09/23 02:53 KMAF 230253Z 11007KT 9SM CLR 22/08 A3006 RMK AO2 SLP142 T02170078 53012
KSRR - Sierra B/Ruidoso, New Mexico, USA
Distance from station: W 127mi, 204km
Updated: Tue, 22-Sep-2020 9:35pm MDT
Clear
Clear
 Wind from NW
Wind: NW 5 mph , 7 km/h
Temperature: 64°F , 18°C
Dew Point: 32°F , 0°C
Humidity: 30%
Barometer: 30.29 inHg , 1025.7 hPa
Clouds: Clear
Visibility: 10 miles , 16 km
2020/09/23 03:35 KSRR 230335Z AUTO 31004KT 10SM CLR 18/00 A3029 RMK AO2
 
KGDP - Guadalupe Pass, Texas, USA
Distance from station: SW 130mi, 209km
Updated: Tue, 22-Sep-2020 8:51pm MDT
Clear
Clear
 Wind from NE
Wind: NE 22 mph , 35 km/h
Temperature: 72°F , 22°C
Dew Point: 36°F , 2°C
Humidity: 27%
Barometer: 30.19 inHg , 1022.4 hPa
Clouds: Clear
Visibility: 8 miles , 13 km
2020/09/23 02:51 KGDP 230251Z AUTO 04019KT 8SM CLR 22/02 A3019 RMK AO2 SLP153 T02220017 53005